sensor_id;sensor_type;location;lat;lon;timestamp;P1;durP1;ratioP1;P2;durP2;ratioP2
14923;SDS011;7554;43.600;1.480;2023-03-19T00:00:07;13.40;;;9.20;;
14923;SDS011;7554;43.600;1.480;2023-03-19T00:02:36;16.90;;;9.70;;
14923;SDS011;7554;43.600;1.480;2023-03-19T00:05:03;14.00;;;8.60;;
14923;SDS011;7554;43.600;1.480;2023-03-19T00:07:32;15.63;;;9.17;;
14923;SDS011;7554;43.600;1.480;2023-03-19T00:10:00;17.00;;;9.23;;
14923;SDS011;7554;43.600;1.480;2023-03-19T00:12:27;19.67;;;9.07;;
14923;SDS011;7554;43.600;1.480;2023-03-19T00:14:54;10.83;;;7.83;;
14923;SDS011;7554;43.600;1.480;2023-03-19T00:17:22;15.53;;;8.50;;
14923;SDS011;7554;43.600;1.480;2023-03-19T00:19:49;12.03;;;8.03;;
14923;SDS011;7554;43.600;1.480;2023-03-19T00:22:16;15.33;;;8.67;;
14923;SDS011;7554;43.600;1.480;2023-03-19T00:24:45;15.60;;;8.20;;
14923;SDS011;7554;43.600;1.480;2023-03-19T00:27:12;14.40;;;7.73;;
14923;SDS011;7554;43.600;1.480;2023-03-19T00:29:40;16.27;;;8.83;;
14923;SDS011;7554;43.600;1.480;2023-03-19T00:32:07;18.03;;;9.20;;
14923;SDS011;7554;43.600;1.480;2023-03-19T00:34:34;17.03;;;9.37;;
14923;SDS011;7554;43.600;1.480;2023-03-19T00:37:02;18.50;;;8.97;;
14923;SDS011;7554;43.600;1.480;2023-03-19T00:39:29;16.07;;;8.33;;
14923;SDS011;7554;43.600;1.480;2023-03-19T00:41:58;18.03;;;9.40;;
14923;SDS011;7554;43.600;1.480;2023-03-19T00:44:26;17.33;;;9.13;;
14923;SDS011;7554;43.600;1.480;2023-03-19T00:46:53;17.30;;;9.20;;
14923;SDS011;7554;43.600;1.480;2023-03-19T00:49:21;17.77;;;9.30;;
14923;SDS011;7554;43.600;1.480;2023-03-19T00:51:49;17.37;;;9.47;;
14923;SDS011;7554;43.600;1.480;2023-03-19T00:54:17;16.43;;;8.63;;
14923;SDS011;7554;43.600;1.480;2023-03-19T00:56:44;18.07;;;9.13;;
14923;SDS011;7554;43.600;1.480;2023-03-19T00:59:13;19.77;;;9.40;;
14923;SDS011;7554;43.600;1.480;2023-03-19T01:01:40;39.37;;;23.67;;
14923;SDS011;7554;43.600;1.480;2023-03-19T01:04:07;20.63;;;12.87;;
14923;SDS011;7554;43.600;1.480;2023-03-19T01:06:35;16.30;;;8.73;;
14923;SDS011;7554;43.600;1.480;2023-03-19T01:09:02;12.87;;;6.83;;
14923;SDS011;7554;43.600;1.480;2023-03-19T01:11:30;16.10;;;7.70;;
14923;SDS011;7554;43.600;1.480;2023-03-19T01:13:57;12.57;;;6.67;;
14923;SDS011;7554;43.600;1.480;2023-03-19T01:16:27;13.13;;;6.33;;
14923;SDS011;7554;43.600;1.480;2023-03-19T01:18:55;8.80;;;5.67;;
14923;SDS011;7554;43.600;1.480;2023-03-19T01:21:23;12.90;;;6.50;;
14923;SDS011;7554;43.600;1.480;2023-03-19T01:23:51;10.30;;;5.77;;
14923;SDS011;7554;43.600;1.480;2023-03-19T01:26:18;8.93;;;5.13;;
14923;SDS011;7554;43.600;1.480;2023-03-19T01:28:46;7.60;;;4.83;;
14923;SDS011;7554;43.600;1.480;2023-03-19T01:31:13;8.03;;;4.70;;
14923;SDS011;7554;43.600;1.480;2023-03-19T01:33:42;7.13;;;5.00;;
14923;SDS011;7554;43.600;1.480;2023-03-19T01:36:10;10.97;;;5.23;;
14923;SDS011;7554;43.600;1.480;2023-03-19T01:38:37;10.83;;;5.00;;
14923;SDS011;7554;43.600;1.480;2023-03-19T01:41:05;6.87;;;4.47;;
14923;SDS011;7554;43.600;1.480;2023-03-19T01:43:32;5.67;;;4.07;;
14923;SDS011;7554;43.600;1.480;2023-03-19T01:46:01;6.63;;;3.87;;
14923;SDS011;7554;43.600;1.480;2023-03-19T01:48:33;8.17;;;4.33;;
14923;SDS011;7554;43.600;1.480;2023-03-19T01:51:06;8.13;;;3.97;;
14923;SDS011;7554;43.600;1.480;2023-03-19T01:53:36;5.07;;;3.80;;
14923;SDS011;7554;43.600;1.480;2023-03-19T01:56:08;7.10;;;3.70;;
14923;SDS011;7554;43.600;1.480;2023-03-19T01:58:40;9.13;;;4.47;;
14923;SDS011;7554;43.600;1.480;2023-03-19T02:01:10;6.00;;;3.67;;
14923;SDS011;7554;43.600;1.480;2023-03-19T02:03:38;8.30;;;3.20;;
14923;SDS011;7554;43.600;1.480;2023-03-19T02:06:07;6.33;;;3.83;;
14923;SDS011;7554;43.600;1.480;2023-03-19T02:08:37;7.00;;;3.40;;
14923;SDS011;7554;43.600;1.480;2023-03-19T02:11:06;6.40;;;3.20;;
14923;SDS011;7554;43.600;1.480;2023-03-19T02:13:34;9.30;;;3.13;;
14923;SDS011;7554;43.600;1.480;2023-03-19T02:16:01;5.20;;;2.80;;
14923;SDS011;7554;43.600;1.480;2023-03-19T02:18:29;4.00;;;2.67;;
14923;SDS011;7554;43.600;1.480;2023-03-19T02:20:58;4.70;;;2.60;;
14923;SDS011;7554;43.600;1.480;2023-03-19T02:23:31;7.90;;;2.40;;
14923;SDS011;7554;43.600;1.480;2023-03-19T02:26:07;5.13;;;2.50;;
14923;SDS011;7554;43.600;1.480;2023-03-19T02:28:36;2.97;;;1.90;;
14923;SDS011;7554;43.600;1.480;2023-03-19T02:31:05;4.23;;;1.70;;
14923;SDS011;7554;43.600;1.480;2023-03-19T02:33:33;6.20;;;1.87;;
14923;SDS011;7554;43.600;1.480;2023-03-19T02:36:00;2.60;;;1.43;;
14923;SDS011;7554;43.600;1.480;2023-03-19T02:38:29;4.77;;;1.67;;
14923;SDS011;7554;43.600;1.480;2023-03-19T02:40:59;3.03;;;1.53;;
14923;SDS011;7554;43.600;1.480;2023-03-19T02:43:30;1.43;;;1.23;;
14923;SDS011;7554;43.600;1.480;2023-03-19T02:45:58;3.10;;;1.60;;
14923;SDS011;7554;43.600;1.480;2023-03-19T02:48:26;2.97;;;1.43;;
14923;SDS011;7554;43.600;1.480;2023-03-19T02:50:53;5.30;;;1.30;;
14923;SDS011;7554;43.600;1.480;2023-03-19T02:53:21;6.63;;;1.63;;
14923;SDS011;7554;43.600;1.480;2023-03-19T02:55:48;5.23;;;1.70;;
14923;SDS011;7554;43.600;1.480;2023-03-19T02:58:16;3.27;;;1.70;;
14923;SDS011;7554;43.600;1.480;2023-03-19T03:00:45;3.77;;;1.60;;
14923;SDS011;7554;43.600;1.480;2023-03-19T03:03:13;4.97;;;1.57;;
14923;SDS011;7554;43.600;1.480;2023-03-19T03:05:40;3.87;;;1.43;;
14923;SDS011;7554;43.600;1.480;2023-03-19T03:08:07;1.60;;;1.10;;
14923;SDS011;7554;43.600;1.480;2023-03-19T03:10:35;2.50;;;1.27;;
14923;SDS011;7554;43.600;1.480;2023-03-19T03:13:02;2.90;;;1.37;;
14923;SDS011;7554;43.600;1.480;2023-03-19T03:15:31;3.40;;;1.70;;
14923;SDS011;7554;43.600;1.480;2023-03-19T03:18:00;3.83;;;1.60;;
14923;SDS011;7554;43.600;1.480;2023-03-19T03:20:27;1.63;;;1.30;;
14923;SDS011;7554;43.600;1.480;2023-03-19T03:22:54;2.20;;;1.17;;
14923;SDS011;7554;43.600;1.480;2023-03-19T03:25:22;4.93;;;1.53;;
14923;SDS011;7554;43.600;1.480;2023-03-19T03:27:49;4.97;;;1.50;;
14923;SDS011;7554;43.600;1.480;2023-03-19T03:30:17;2.37;;;1.37;;
14923;SDS011;7554;43.600;1.480;2023-03-19T03:32:45;2.17;;;1.30;;
14923;SDS011;7554;43.600;1.480;2023-03-19T03:35:14;4.07;;;1.50;;
14923;SDS011;7554;43.600;1.480;2023-03-19T03:37:46;4.17;;;1.33;;
14923;SDS011;7554;43.600;1.480;2023-03-19T03:40:13;2.83;;;1.00;;
14923;SDS011;7554;43.600;1.480;2023-03-19T03:42:41;3.03;;;1.37;;
14923;SDS011;7554;43.600;1.480;2023-03-19T03:45:09;5.53;;;1.07;;
14923;SDS011;7554;43.600;1.480;2023-03-19T03:47:37;3.00;;;1.03;;
14923;SDS011;7554;43.600;1.480;2023-03-19T03:50:05;5.37;;;1.17;;
14923;SDS011;7554;43.600;1.480;2023-03-19T03:52:36;3.77;;;1.03;;
14923;SDS011;7554;43.600;1.480;2023-03-19T03:55:04;3.63;;;1.10;;
14923;SDS011;7554;43.600;1.480;2023-03-19T03:57:33;2.47;;;1.20;;
14923;SDS011;7554;43.600;1.480;2023-03-19T04:00:00;5.13;;;1.47;;
14923;SDS011;7554;43.600;1.480;2023-03-19T04:02:28;4.20;;;1.47;;
14923;SDS011;7554;43.600;1.480;2023-03-19T04:04:55;3.20;;;1.10;;
14923;SDS011;7554;43.600;1.480;2023-03-19T04:07:23;3.40;;;1.30;;
14923;SDS011;7554;43.600;1.480;2023-03-19T04:09:52;2.03;;;1.20;;
14923;SDS011;7554;43.600;1.480;2023-03-19T04:12:22;3.13;;;1.40;;
14923;SDS011;7554;43.600;1.480;2023-03-19T04:14:50;3.40;;;1.33;;
14923;SDS011;7554;43.600;1.480;2023-03-19T04:17:17;1.30;;;1.10;;
14923;SDS011;7554;43.600;1.480;2023-03-19T04:19:44;2.30;;;1.20;;
14923;SDS011;7554;43.600;1.480;2023-03-19T04:22:12;3.17;;;1.30;;
14923;SDS011;7554;43.600;1.480;2023-03-19T04:24:40;3.80;;;1.70;;
14923;SDS011;7554;43.600;1.480;2023-03-19T04:27:09;3.03;;;1.57;;
14923;SDS011;7554;43.600;1.480;2023-03-19T04:29:36;3.33;;;1.20;;
14923;SDS011;7554;43.600;1.480;2023-03-19T04:32:03;4.33;;;1.27;;
14923;SDS011;7554;43.600;1.480;2023-03-19T04:34:31;2.87;;;1.20;;
14923;SDS011;7554;43.600;1.480;2023-03-19T04:36:59;4.27;;;1.20;;
14923;SDS011;7554;43.600;1.480;2023-03-19T04:39:27;1.83;;;0.83;;
14923;SDS011;7554;43.600;1.480;2023-03-19T04:41:54;2.77;;;1.00;;
14923;SDS011;7554;43.600;1.480;2023-03-19T04:44:23;2.87;;;1.17;;
14923;SDS011;7554;43.600;1.480;2023-03-19T04:46:51;5.33;;;0.93;;
14923;SDS011;7554;43.600;1.480;2023-03-19T04:49:18;1.43;;;0.90;;
14923;SDS011;7554;43.600;1.480;2023-03-19T04:51:46;3.23;;;0.77;;
14923;SDS011;7554;43.600;1.480;2023-03-19T04:54:13;2.10;;;0.87;;
14923;SDS011;7554;43.600;1.480;2023-03-19T04:56:41;2.20;;;0.80;;
14923;SDS011;7554;43.600;1.480;2023-03-19T04:59:08;1.87;;;0.70;;
14923;SDS011;7554;43.600;1.480;2023-03-19T05:01:37;1.10;;;0.70;;
14923;SDS011;7554;43.600;1.480;2023-03-19T05:04:04;3.13;;;0.80;;
14923;SDS011;7554;43.600;1.480;2023-03-19T05:06:32;2.67;;;0.90;;
14923;SDS011;7554;43.600;1.480;2023-03-19T05:09:00;1.27;;;0.53;;
14923;SDS011;7554;43.600;1.480;2023-03-19T05:11:28;3.07;;;0.90;;
14923;SDS011;7554;43.600;1.480;2023-03-19T05:13:55;3.73;;;0.80;;
14923;SDS011;7554;43.600;1.480;2023-03-19T05:16:22;3.50;;;1.00;;
14923;SDS011;7554;43.600;1.480;2023-03-19T05:18:51;3.37;;;1.57;;
14923;SDS011;7554;43.600;1.480;2023-03-19T05:21:18;1.37;;;0.90;;
14923;SDS011;7554;43.600;1.480;2023-03-19T05:23:46;1.50;;;0.80;;
14923;SDS011;7554;43.600;1.480;2023-03-19T05:26:16;5.97;;;0.90;;
14923;SDS011;7554;43.600;1.480;2023-03-19T05:28:43;3.93;;;1.20;;
14923;SDS011;7554;43.600;1.480;2023-03-19T05:31:11;5.17;;;1.23;;
14923;SDS011;7554;43.600;1.480;2023-03-19T05:33:39;2.17;;;0.90;;
14923;SDS011;7554;43.600;1.480;2023-03-19T05:36:08;3.47;;;1.27;;
14923;SDS011;7554;43.600;1.480;2023-03-19T05:38:36;2.10;;;1.00;;
14923;SDS011;7554;43.600;1.480;2023-03-19T05:41:03;3.27;;;0.90;;
14923;SDS011;7554;43.600;1.480;2023-03-19T05:43:31;6.63;;;1.20;;
14923;SDS011;7554;43.600;1.480;2023-03-19T05:45:59;6.03;;;1.40;;
14923;SDS011;7554;43.600;1.480;2023-03-19T05:48:26;4.83;;;1.73;;
14923;SDS011;7554;43.600;1.480;2023-03-19T05:50:53;2.70;;;1.30;;
14923;SDS011;7554;43.600;1.480;2023-03-19T05:53:22;4.20;;;1.53;;
14923;SDS011;7554;43.600;1.480;2023-03-19T05:55:49;2.60;;;1.50;;
14923;SDS011;7554;43.600;1.480;2023-03-19T05:58:17;3.00;;;1.43;;
14923;SDS011;7554;43.600;1.480;2023-03-19T06:00:44;5.37;;;1.30;;
14923;SDS011;7554;43.600;1.480;2023-03-19T06:03:12;3.87;;;1.43;;
14923;SDS011;7554;43.600;1.480;2023-03-19T06:05:40;5.10;;;1.70;;
14923;SDS011;7554;43.600;1.480;2023-03-19T06:08:08;6.10;;;1.77;;
14923;SDS011;7554;43.600;1.480;2023-03-19T06:10:36;3.70;;;1.53;;
14923;SDS011;7554;43.600;1.480;2023-03-19T06:13:04;2.87;;;1.30;;
14923;SDS011;7554;43.600;1.480;2023-03-19T06:15:31;4.40;;;1.70;;
14923;SDS011;7554;43.600;1.480;2023-03-19T06:17:59;7.90;;;1.60;;
14923;SDS011;7554;43.600;1.480;2023-03-19T06:20:26;5.67;;;1.60;;
14923;SDS011;7554;43.600;1.480;2023-03-19T06:22:53;5.43;;;1.80;;
14923;SDS011;7554;43.600;1.480;2023-03-19T06:25:21;4.50;;;1.50;;
14923;SDS011;7554;43.600;1.480;2023-03-19T06:27:49;4.27;;;1.73;;
14923;SDS011;7554;43.600;1.480;2023-03-19T06:30:17;5.23;;;2.00;;
14923;SDS011;7554;43.600;1.480;2023-03-19T06:32:44;6.30;;;1.70;;
14923;SDS011;7554;43.600;1.480;2023-03-19T06:35:11;5.40;;;1.90;;
14923;SDS011;7554;43.600;1.480;2023-03-19T06:37:39;7.47;;;2.50;;
14923;SDS011;7554;43.600;1.480;2023-03-19T06:40:06;3.63;;;2.10;;
14923;SDS011;7554;43.600;1.480;2023-03-19T06:42:34;6.73;;;2.43;;
14923;SDS011;7554;43.600;1.480;2023-03-19T06:45:03;5.70;;;2.20;;
14923;SDS011;7554;43.600;1.480;2023-03-19T06:47:31;9.10;;;2.10;;
14923;SDS011;7554;43.600;1.480;2023-03-19T06:49:59;5.47;;;1.60;;
14923;SDS011;7554;43.600;1.480;2023-03-19T06:52:26;3.63;;;1.70;;
14923;SDS011;7554;43.600;1.480;2023-03-19T06:54:53;4.53;;;1.73;;
14923;SDS011;7554;43.600;1.480;2023-03-19T06:57:21;4.53;;;1.40;;
14923;SDS011;7554;43.600;1.480;2023-03-19T06:59:48;2.47;;;1.37;;
14923;SDS011;7554;43.600;1.480;2023-03-19T07:02:17;5.87;;;1.97;;
14923;SDS011;7554;43.600;1.480;2023-03-19T07:04:45;3.57;;;2.10;;
14923;SDS011;7554;43.600;1.480;2023-03-19T07:07:12;4.57;;;1.57;;
14923;SDS011;7554;43.600;1.480;2023-03-19T07:09:39;2.73;;;1.10;;
14923;SDS011;7554;43.600;1.480;2023-03-19T07:12:07;2.63;;;1.00;;
14923;SDS011;7554;43.600;1.480;2023-03-19T07:14:34;3.67;;;1.07;;
14923;SDS011;7554;43.600;1.480;2023-03-19T07:17:02;1.57;;;0.73;;
14923;SDS011;7554;43.600;1.480;2023-03-19T07:19:31;1.70;;;0.70;;
14923;SDS011;7554;43.600;1.480;2023-03-19T07:21:58;1.77;;;0.80;;
14923;SDS011;7554;43.600;1.480;2023-03-19T07:24:25;2.17;;;0.80;;
14923;SDS011;7554;43.600;1.480;2023-03-19T07:26:52;1.70;;;0.90;;
14923;SDS011;7554;43.600;1.480;2023-03-19T07:29:20;1.07;;;0.60;;
14923;SDS011;7554;43.600;1.480;2023-03-19T07:31:48;1.27;;;0.70;;
14923;SDS011;7554;43.600;1.480;2023-03-19T07:34:15;2.20;;;0.87;;
14923;SDS011;7554;43.600;1.480;2023-03-19T07:36:44;3.13;;;0.80;;
14923;SDS011;7554;43.600;1.480;2023-03-19T07:39:12;5.00;;;0.77;;
14923;SDS011;7554;43.600;1.480;2023-03-19T07:41:39;2.37;;;0.70;;
14923;SDS011;7554;43.600;1.480;2023-03-19T07:44:09;3.27;;;0.70;;
14923;SDS011;7554;43.600;1.480;2023-03-19T07:46:36;2.47;;;0.80;;
14923;SDS011;7554;43.600;1.480;2023-03-19T07:49:03;2.97;;;0.60;;
14923;SDS011;7554;43.600;1.480;2023-03-19T07:51:31;1.50;;;0.60;;
14923;SDS011;7554;43.600;1.480;2023-03-19T07:54:00;0.90;;;0.60;;
14923;SDS011;7554;43.600;1.480;2023-03-19T07:56:28;2.17;;;0.70;;
14923;SDS011;7554;43.600;1.480;2023-03-19T07:58:55;2.13;;;0.90;;
14923;SDS011;7554;43.600;1.480;2023-03-19T08:01:23;1.53;;;0.60;;
14923;SDS011;7554;43.600;1.480;2023-03-19T08:03:51;0.90;;;0.50;;
14923;SDS011;7554;43.600;1.480;2023-03-19T08:06:18;1.07;;;0.57;;
14923;SDS011;7554;43.600;1.480;2023-03-19T08:08:46;1.10;;;0.70;;
14923;SDS011;7554;43.600;1.480;2023-03-19T08:11:15;2.20;;;0.57;;
14923;SDS011;7554;43.600;1.480;2023-03-19T08:13:42;2.37;;;0.50;;
14923;SDS011;7554;43.600;1.480;2023-03-19T08:16:09;1.00;;;0.60;;
14923;SDS011;7554;43.600;1.480;2023-03-19T08:18:37;3.07;;;0.87;;
14923;SDS011;7554;43.600;1.480;2023-03-19T08:21:05;2.10;;;0.63;;
14923;SDS011;7554;43.600;1.480;2023-03-19T08:23:32;1.97;;;0.70;;
14923;SDS011;7554;43.600;1.480;2023-03-19T08:26:00;2.37;;;1.00;;
14923;SDS011;7554;43.600;1.480;2023-03-19T08:28:29;2.07;;;0.90;;
14923;SDS011;7554;43.600;1.480;2023-03-19T08:30:56;2.80;;;1.00;;
14923;SDS011;7554;43.600;1.480;2023-03-19T08:33:23;1.17;;;0.90;;
14923;SDS011;7554;43.600;1.480;2023-03-19T08:35:51;2.63;;;0.93;;
14923;SDS011;7554;43.600;1.480;2023-03-19T08:38:18;1.83;;;0.70;;
14923;SDS011;7554;43.600;1.480;2023-03-19T08:40:45;2.43;;;0.60;;
14923;SDS011;7554;43.600;1.480;2023-03-19T08:43:13;3.20;;;0.90;;
14923;SDS011;7554;43.600;1.480;2023-03-19T08:45:42;1.83;;;0.70;;
14923;SDS011;7554;43.600;1.480;2023-03-19T08:48:09;2.57;;;0.90;;
14923;SDS011;7554;43.600;1.480;2023-03-19T08:50:36;2.17;;;0.80;;
14923;SDS011;7554;43.600;1.480;2023-03-19T08:53:04;2.87;;;0.97;;
14923;SDS011;7554;43.600;1.480;2023-03-19T08:55:31;3.23;;;0.90;;
14923;SDS011;7554;43.600;1.480;2023-03-19T08:57:58;1.33;;;0.70;;
14923;SDS011;7554;43.600;1.480;2023-03-19T09:00:26;2.50;;;0.67;;
14923;SDS011;7554;43.600;1.480;2023-03-19T09:02:54;1.03;;;0.80;;
14923;SDS011;7554;43.600;1.480;2023-03-19T09:05:22;2.00;;;0.80;;
14923;SDS011;7554;43.600;1.480;2023-03-19T09:07:49;2.90;;;0.80;;
14923;SDS011;7554;43.600;1.480;2023-03-19T09:10:17;2.97;;;0.70;;
14923;SDS011;7554;43.600;1.480;2023-03-19T09:12:45;1.73;;;0.60;;
14923;SDS011;7554;43.600;1.480;2023-03-19T09:15:12;1.20;;;0.60;;
14923;SDS011;7554;43.600;1.480;2023-03-19T09:17:39;2.50;;;0.70;;
14923;SDS011;7554;43.600;1.480;2023-03-19T09:20:09;3.10;;;0.70;;
14923;SDS011;7554;43.600;1.480;2023-03-19T09:22:36;2.80;;;0.60;;
14923;SDS011;7554;43.600;1.480;2023-03-19T09:25:05;1.67;;;0.50;;
14923;SDS011;7554;43.600;1.480;2023-03-19T09:27:32;1.30;;;0.60;;
14923;SDS011;7554;43.600;1.480;2023-03-19T09:30:00;1.43;;;0.60;;
14923;SDS011;7554;43.600;1.480;2023-03-19T09:32:27;1.70;;;0.50;;
14923;SDS011;7554;43.600;1.480;2023-03-19T09:34:55;0.90;;;0.30;;
14923;SDS011;7554;43.600;1.480;2023-03-19T09:37:24;2.63;;;0.50;;
14923;SDS011;7554;43.600;1.480;2023-03-19T09:39:51;0.73;;;0.30;;
14923;SDS011;7554;43.600;1.480;2023-03-19T09:42:23;0.63;;;0.40;;
14923;SDS011;7554;43.600;1.480;2023-03-19T09:45:07;1.27;;;0.43;;
14923;SDS011;7554;43.600;1.480;2023-03-19T09:47:40;2.17;;;0.40;;
14923;SDS011;7554;43.600;1.480;2023-03-19T09:50:10;1.50;;;0.67;;
14923;SDS011;7554;43.600;1.480;2023-03-19T09:52:42;1.03;;;0.30;;
14923;SDS011;7554;43.600;1.480;2023-03-19T09:55:18;0.87;;;0.40;;
14923;SDS011;7554;43.600;1.480;2023-03-19T09:57:56;0.80;;;0.47;;
14923;SDS011;7554;43.600;1.480;2023-03-19T10:00:25;0.97;;;0.47;;
14923;SDS011;7554;43.600;1.480;2023-03-19T10:02:57;1.50;;;0.43;;
14923;SDS011;7554;43.600;1.480;2023-03-19T10:05:31;1.53;;;0.50;;
14923;SDS011;7554;43.600;1.480;2023-03-19T10:11:17;1.13;;;0.50;;
14923;SDS011;7554;43.600;1.480;2023-03-19T10:14:00;0.67;;;0.43;;
14923;SDS011;7554;43.600;1.480;2023-03-19T10:16:43;2.30;;;0.63;;
14923;SDS011;7554;43.600;1.480;2023-03-19T10:19:15;2.07;;;0.50;;
14923;SDS011;7554;43.600;1.480;2023-03-19T10:21:47;1.13;;;0.50;;
14923;SDS011;7554;43.600;1.480;2023-03-19T10:24:21;0.97;;;0.40;;
14923;SDS011;7554;43.600;1.480;2023-03-19T10:26:54;0.70;;;0.40;;
14923;SDS011;7554;43.600;1.480;2023-03-19T10:29:24;1.67;;;0.50;;
14923;SDS011;7554;43.600;1.480;2023-03-19T10:31:55;1.63;;;0.40;;
14923;SDS011;7554;43.600;1.480;2023-03-19T10:34:30;2.47;;;0.40;;
14923;SDS011;7554;43.600;1.480;2023-03-19T10:37:00;0.73;;;0.30;;
14923;SDS011;7554;43.600;1.480;2023-03-19T10:39:31;0.80;;;0.40;;
14923;SDS011;7554;43.600;1.480;2023-03-19T10:42:04;0.70;;;0.40;;
14923;SDS011;7554;43.600;1.480;2023-03-19T10:44:42;1.53;;;0.40;;
14923;SDS011;7554;43.600;1.480;2023-03-19T10:47:14;1.57;;;0.67;;
14923;SDS011;7554;43.600;1.480;2023-03-19T10:49:44;1.70;;;0.30;;
14923;SDS011;7554;43.600;1.480;2023-03-19T10:52:16;2.17;;;0.50;;
14923;SDS011;7554;43.600;1.480;2023-03-19T10:54:50;1.13;;;0.40;;
14923;SDS011;7554;43.600;1.480;2023-03-19T10:57:21;1.30;;;0.40;;
14923;SDS011;7554;43.600;1.480;2023-03-19T10:59:51;0.60;;;0.40;;
14923;SDS011;7554;43.600;1.480;2023-03-19T11:02:19;0.70;;;0.23;;
14923;SDS011;7554;43.600;1.480;2023-03-19T11:04:48;1.97;;;0.40;;
14923;SDS011;7554;43.600;1.480;2023-03-19T11:07:31;0.93;;;0.50;;
14923;SDS011;7554;43.600;1.480;2023-03-19T11:10:02;1.03;;;0.30;;
14923;SDS011;7554;43.600;1.480;2023-03-19T11:12:31;0.83;;;0.40;;
14923;SDS011;7554;43.600;1.480;2023-03-19T11:15:00;0.60;;;0.23;;
14923;SDS011;7554;43.600;1.480;2023-03-19T11:17:35;2.73;;;0.40;;
14923;SDS011;7554;43.600;1.480;2023-03-19T11:20:07;1.10;;;0.50;;
14923;SDS011;7554;43.600;1.480;2023-03-19T11:22:48;1.23;;;0.40;;
14923;SDS011;7554;43.600;1.480;2023-03-19T11:25:22;0.50;;;0.20;;
14923;SDS011;7554;43.600;1.480;2023-03-19T11:27:56;0.90;;;0.30;;
14923;SDS011;7554;43.600;1.480;2023-03-19T11:30:25;2.40;;;0.30;;
14923;SDS011;7554;43.600;1.480;2023-03-19T11:33:17;0.60;;;0.30;;
14923;SDS011;7554;43.600;1.480;2023-03-19T11:36:03;0.97;;;0.20;;
14923;SDS011;7554;43.600;1.480;2023-03-19T11:38:38;0.83;;;0.37;;
14923;SDS011;7554;43.600;1.480;2023-03-19T11:41:18;0.80;;;0.50;;
14923;SDS011;7554;43.600;1.480;2023-03-19T11:43:53;0.80;;;0.30;;
14923;SDS011;7554;43.600;1.480;2023-03-19T11:46:31;1.43;;;0.33;;
14923;SDS011;7554;43.600;1.480;2023-03-19T11:49:14;0.67;;;0.20;;
14923;SDS011;7554;43.600;1.480;2023-03-19T11:51:58;2.03;;;0.63;;
14923;SDS011;7554;43.600;1.480;2023-03-19T11:54:31;2.77;;;0.67;;
14923;SDS011;7554;43.600;1.480;2023-03-19T11:57:09;1.37;;;0.50;;
14923;SDS011;7554;43.600;1.480;2023-03-19T11:59:46;1.13;;;0.50;;
14923;SDS011;7554;43.600;1.480;2023-03-19T12:05:28;1.63;;;0.43;;
14923;SDS011;7554;43.600;1.480;2023-03-19T12:08:06;1.27;;;0.60;;
14923;SDS011;7554;43.600;1.480;2023-03-19T12:10:49;1.80;;;0.63;;
14923;SDS011;7554;43.600;1.480;2023-03-19T12:13:29;1.50;;;0.50;;
14923;SDS011;7554;43.600;1.480;2023-03-19T12:16:12;0.80;;;0.47;;
14923;SDS011;7554;43.600;1.480;2023-03-19T12:18:59;1.17;;;0.50;;
14923;SDS011;7554;43.600;1.480;2023-03-19T12:21:49;2.20;;;0.77;;
14923;SDS011;7554;43.600;1.480;2023-03-19T12:24:28;1.40;;;0.63;;
14923;SDS011;7554;43.600;1.480;2023-03-19T12:27:17;2.17;;;0.40;;
14923;SDS011;7554;43.600;1.480;2023-03-19T12:29:53;1.47;;;0.57;;
14923;SDS011;7554;43.600;1.480;2023-03-19T12:32:30;1.13;;;0.60;;
14923;SDS011;7554;43.600;1.480;2023-03-19T12:35:11;1.30;;;0.40;;
14923;SDS011;7554;43.600;1.480;2023-03-19T12:37:41;1.70;;;0.50;;
14923;SDS011;7554;43.600;1.480;2023-03-19T12:40:16;0.90;;;0.40;;
14923;SDS011;7554;43.600;1.480;2023-03-19T12:42:53;1.10;;;0.30;;
14923;SDS011;7554;43.600;1.480;2023-03-19T12:45:28;0.77;;;0.30;;
14923;SDS011;7554;43.600;1.480;2023-03-19T12:48:01;0.47;;;0.30;;
14923;SDS011;7554;43.600;1.480;2023-03-19T12:50:34;0.47;;;0.20;;
14923;SDS011;7554;43.600;1.480;2023-03-19T12:53:04;0.90;;;0.70;;
14923;SDS011;7554;43.600;1.480;2023-03-19T12:55:38;0.60;;;0.30;;
14923;SDS011;7554;43.600;1.480;2023-03-19T12:58:11;1.23;;;0.43;;
14923;SDS011;7554;43.600;1.480;2023-03-19T13:00:47;1.27;;;0.33;;
14923;SDS011;7554;43.600;1.480;2023-03-19T13:03:22;1.17;;;0.47;;
14923;SDS011;7554;43.600;1.480;2023-03-19T13:05:57;1.20;;;0.60;;
14923;SDS011;7554;43.600;1.480;2023-03-19T13:08:31;1.73;;;0.60;;
14923;SDS011;7554;43.600;1.480;2023-03-19T13:11:03;0.97;;;0.50;;
14923;SDS011;7554;43.600;1.480;2023-03-19T13:13:38;1.83;;;0.50;;
14923;SDS011;7554;43.600;1.480;2023-03-19T13:16:25;0.60;;;0.20;;
14923;SDS011;7554;43.600;1.480;2023-03-19T13:19:00;0.50;;;0.27;;
14923;SDS011;7554;43.600;1.480;2023-03-19T13:21:32;0.40;;;0.20;;
14923;SDS011;7554;43.600;1.480;2023-03-19T13:24:03;0.40;;;0.20;;
14923;SDS011;7554;43.600;1.480;2023-03-19T13:26:39;1.33;;;0.20;;
14923;SDS011;7554;43.600;1.480;2023-03-19T13:29:08;0.40;;;0.00;;
14923;SDS011;7554;43.600;1.480;2023-03-19T13:31:45;0.50;;;0.20;;
14923;SDS011;7554;43.600;1.480;2023-03-19T13:34:25;0.60;;;0.30;;
14923;SDS011;7554;43.600;1.480;2023-03-19T13:36:58;0.40;;;0.20;;
14923;SDS011;7554;43.600;1.480;2023-03-19T13:39:28;1.03;;;0.10;;
14923;SDS011;7554;43.600;1.480;2023-03-19T13:42:20;0.50;;;0.30;;
14923;SDS011;7554;43.600;1.480;2023-03-19T13:45:01;2.00;;;0.30;;
14923;SDS011;7554;43.600;1.480;2023-03-19T13:47:37;1.50;;;0.40;;
14923;SDS011;7554;43.600;1.480;2023-03-19T13:50:24;0.90;;;0.43;;
14923;SDS011;7554;43.600;1.480;2023-03-19T13:53:11;0.50;;;0.33;;
14923;SDS011;7554;43.600;1.480;2023-03-19T13:55:50;0.53;;;0.30;;
14923;SDS011;7554;43.600;1.480;2023-03-19T13:58:20;1.33;;;0.37;;
14923;SDS011;7554;43.600;1.480;2023-03-19T14:01:05;0.80;;;0.30;;
14923;SDS011;7554;43.600;1.480;2023-03-19T14:03:39;1.63;;;0.30;;
14923;SDS011;7554;43.600;1.480;2023-03-19T14:06:29;0.60;;;0.40;;
14923;SDS011;7554;43.600;1.480;2023-03-19T14:09:01;1.63;;;0.50;;
14923;SDS011;7554;43.600;1.480;2023-03-19T14:11:30;1.17;;;0.33;;
14923;SDS011;7554;43.600;1.480;2023-03-19T14:13:59;0.90;;;0.50;;
14923;SDS011;7554;43.600;1.480;2023-03-19T14:16:30;0.97;;;0.50;;
14923;SDS011;7554;43.600;1.480;2023-03-19T14:19:02;1.73;;;0.70;;
14923;SDS011;7554;43.600;1.480;2023-03-19T14:21:39;0.50;;;0.20;;
14923;SDS011;7554;43.600;1.480;2023-03-19T14:24:24;1.50;;;0.40;;
14923;SDS011;7554;43.600;1.480;2023-03-19T14:27:14;1.57;;;0.50;;
14923;SDS011;7554;43.600;1.480;2023-03-19T14:29:45;1.67;;;0.53;;
14923;SDS011;7554;43.600;1.480;2023-03-19T14:32:14;0.60;;;0.40;;
14923;SDS011;7554;43.600;1.480;2023-03-19T14:34:45;0.70;;;0.30;;
14923;SDS011;7554;43.600;1.480;2023-03-19T14:37:18;1.07;;;0.37;;
14923;SDS011;7554;43.600;1.480;2023-03-19T14:42:38;1.13;;;0.30;;
14923;SDS011;7554;43.600;1.480;2023-03-19T14:45:22;0.80;;;0.50;;
14923;SDS011;7554;43.600;1.480;2023-03-19T14:51:28;0.60;;;0.23;;
14923;SDS011;7554;43.600;1.480;2023-03-19T14:54:15;0.40;;;0.10;;
14923;SDS011;7554;43.600;1.480;2023-03-19T14:57:07;0.73;;;0.20;;
14923;SDS011;7554;43.600;1.480;2023-03-19T14:59:42;1.77;;;0.23;;
14923;SDS011;7554;43.600;1.480;2023-03-19T15:02:31;0.30;;;0.10;;
14923;SDS011;7554;43.600;1.480;2023-03-19T15:05:01;0.40;;;0.20;;
14923;SDS011;7554;43.600;1.480;2023-03-19T15:07:33;0.97;;;0.20;;
14923;SDS011;7554;43.600;1.480;2023-03-19T15:16:00;0.57;;;0.17;;
14923;SDS011;7554;43.600;1.480;2023-03-19T15:18:39;0.63;;;0.20;;
14923;SDS011;7554;43.600;1.480;2023-03-19T15:21:07;0.50;;;0.20;;
14923;SDS011;7554;43.600;1.480;2023-03-19T15:23:54;1.20;;;0.40;;
14923;SDS011;7554;43.600;1.480;2023-03-19T15:26:28;0.40;;;0.20;;
14923;SDS011;7554;43.600;1.480;2023-03-19T15:28:57;0.97;;;0.20;;
14923;SDS011;7554;43.600;1.480;2023-03-19T15:34:28;1.27;;;0.57;;
14923;SDS011;7554;43.600;1.480;2023-03-19T15:36:57;1.80;;;0.33;;
14923;SDS011;7554;43.600;1.480;2023-03-19T15:39:32;2.63;;;0.40;;
14923;SDS011;7554;43.600;1.480;2023-03-19T15:42:02;1.43;;;0.60;;